createdAt,value
2022-07-29T00:01:06.724Z,22.00
2022-07-29T00:02:39.853Z,22.00
2022-07-29T00:04:13.250Z,22.00
2022-07-29T00:05:46.691Z,22.00
2022-07-29T00:07:19.716Z,21.90
2022-07-29T00:08:54.145Z,21.90
2022-07-29T00:10:27.124Z,22.00
2022-07-29T00:12:02.126Z,22.00
2022-07-29T00:13:35.108Z,22.00
2022-07-29T00:15:09.171Z,22.00
2022-07-29T00:16:42.184Z,21.90
2022-07-29T00:18:15.200Z,21.90
2022-07-29T00:19:48.255Z,21.90
2022-07-29T00:21:21.339Z,21.90
2022-07-29T00:22:54.187Z,21.80
2022-07-29T00:24:28.646Z,21.80
2022-07-29T00:26:01.635Z,21.90
2022-07-29T00:27:34.658Z,21.90
2022-07-29T00:29:33.035Z,21.90
2022-07-29T00:31:00.591Z,21.90
2022-07-29T00:32:33.419Z,21.90
2022-07-29T00:34:07.303Z,21.90
2022-07-29T00:35:44.891Z,21.90
2022-07-29T00:37:17.296Z,21.90
2022-07-29T00:38:50.867Z,21.90
2022-07-29T00:40:25.902Z,21.90
2022-07-29T00:41:58.887Z,21.90
2022-07-29T00:43:31.851Z,21.90
2022-07-29T00:45:05.307Z,21.90
2022-07-29T00:46:38.333Z,21.90
2022-07-29T00:48:11.931Z,21.90
2022-07-29T00:49:44.445Z,21.90
2022-07-29T00:51:17.572Z,21.80
2022-07-29T00:52:50.651Z,21.90
2022-07-29T00:54:22.725Z,21.90
2022-07-29T00:55:57.699Z,21.90
2022-07-29T00:57:29.780Z,21.80
2022-07-29T00:59:02.849Z,21.80
2022-07-29T01:00:36.179Z,21.80
2022-07-29T01:02:08.435Z,21.80
2022-07-29T01:03:41.665Z,21.70
2022-07-29T01:05:14.940Z,21.70
2022-07-29T01:06:48.436Z,21.70
2022-07-29T01:08:22.476Z,21.70
2022-07-29T01:09:56.649Z,21.70
2022-07-29T01:11:31.197Z,21.70
2022-07-29T01:13:04.468Z,21.70
2022-07-29T01:14:41.471Z,21.70
2022-07-29T01:16:20.255Z,21.70
2022-07-29T01:18:03.503Z,21.70
2022-07-29T01:19:49.786Z,21.60
2022-07-29T01:21:44.506Z,21.60
2022-07-29T01:23:53.452Z,21.70
2022-07-29T01:25:59.601Z,21.70
2022-07-29T01:27:44.525Z,21.70
2022-07-29T01:29:35.946Z,21.60
2022-07-29T01:31:15.604Z,21.70
2022-07-29T01:33:03.750Z,21.60
2022-07-29T01:34:43.334Z,21.60
2022-07-29T01:36:22.813Z,21.50
2022-07-29T01:38:03.302Z,21.50
2022-07-29T01:39:39.291Z,21.50
2022-07-29T01:41:17.240Z,21.40
2022-07-29T01:42:53.635Z,21.40
2022-07-29T01:44:33.223Z,21.40
2022-07-29T01:46:11.625Z,21.30
2022-07-29T01:47:48.721Z,21.30
2022-07-29T01:49:27.801Z,21.20
2022-07-29T01:51:06.605Z,21.20
2022-07-29T01:52:57.183Z,21.20
2022-07-29T01:54:36.310Z,21.10
2022-07-29T01:56:12.322Z,21.10
2022-07-29T01:57:48.752Z,21.10
2022-07-29T01:59:24.219Z,21.00
2022-07-29T02:00:59.537Z,21.00
2022-07-29T02:02:33.942Z,20.90
2022-07-29T02:04:09.348Z,20.90
2022-07-29T02:05:46.116Z,20.90
2022-07-29T02:07:21.838Z,20.80
2022-07-29T02:08:56.174Z,20.80
2022-07-29T02:10:33.638Z,20.90
2022-07-29T02:12:09.262Z,20.90
2022-07-29T02:13:43.613Z,21.00
2022-07-29T02:15:18.615Z,21.00
2022-07-29T02:16:55.265Z,21.00
2022-07-29T02:18:30.820Z,21.00
2022-07-29T02:20:07.032Z,21.00
2022-07-29T02:21:40.755Z,21.00
2022-07-29T02:23:14.775Z,20.90
2022-07-29T02:24:49.866Z,20.90
2022-07-29T02:26:25.136Z,20.80
2022-07-29T02:27:59.412Z,20.90
2022-07-29T02:29:34.536Z,20.90
2022-07-29T02:31:08.670Z,20.90
2022-07-29T02:32:45.452Z,20.90
2022-07-29T02:34:21.728Z,20.90
2022-07-29T02:35:55.222Z,20.90
2022-07-29T02:37:30.150Z,20.90
2022-07-29T02:39:04.372Z,21.00
2022-07-29T02:40:41.784Z,21.00
2022-07-29T02:42:18.591Z,20.90
2022-07-29T02:43:56.415Z,21.00
2022-07-29T02:45:30.680Z,21.00
2022-07-29T02:47:09.447Z,21.00
2022-07-29T02:48:53.896Z,21.00
2022-07-29T02:50:33.958Z,21.00
2022-07-29T02:52:11.557Z,21.00
2022-07-29T02:53:59.134Z,21.00
2022-07-29T02:55:35.891Z,20.90
2022-07-29T02:57:15.618Z,20.90
2022-07-29T02:58:54.585Z,20.90
2022-07-29T03:00:31.740Z,20.80
2022-07-29T03:02:06.756Z,20.80
2022-07-29T03:03:40.337Z,20.80
2022-07-29T03:05:19.655Z,20.80
2022-07-29T03:06:54.441Z,20.80
2022-07-29T03:08:29.749Z,20.70
2022-07-29T03:10:03.942Z,20.70
2022-07-29T03:11:42.360Z,20.70
2022-07-29T03:13:23.928Z,20.70
2022-07-29T03:14:58.567Z,20.80
2022-07-29T03:16:32.389Z,20.80
2022-07-29T03:18:09.152Z,20.70
2022-07-29T03:19:42.610Z,20.80
2022-07-29T03:21:16.053Z,20.80
2022-07-29T03:22:49.202Z,20.80
2022-07-29T03:24:28.750Z,20.80
2022-07-29T03:26:01.933Z,20.70
2022-07-29T03:27:34.805Z,20.70
2022-07-29T03:29:07.762Z,20.70
2022-07-29T03:30:46.452Z,20.70
2022-07-29T03:32:24.046Z,20.60
2022-07-29T03:33:58.481Z,20.60
2022-07-29T03:35:32.615Z,20.50
2022-07-29T03:37:07.830Z,20.50
2022-07-29T03:38:44.422Z,20.50
2022-07-29T03:40:21.983Z,20.50
2022-07-29T03:42:00.638Z,20.40
2022-07-29T03:43:36.427Z,20.50
2022-07-29T03:45:12.407Z,20.40
2022-07-29T03:46:48.371Z,20.40
2022-07-29T03:48:24.119Z,20.40
2022-07-29T03:50:01.895Z,20.40
2022-07-29T03:51:34.931Z,20.40
2022-07-29T03:53:10.441Z,20.30
2022-07-29T03:54:43.600Z,20.30
2022-07-29T03:56:17.727Z,20.30
2022-07-29T03:57:51.608Z,20.30
2022-07-29T03:59:25.136Z,20.40
2022-07-29T04:00:59.475Z,20.30
2022-07-29T04:02:33.766Z,20.30
2022-07-29T04:04:07.479Z,20.30
2022-07-29T04:05:40.776Z,20.30
2022-07-29T04:07:16.875Z,20.30
2022-07-29T04:08:51.356Z,20.30
2022-07-29T04:10:30.134Z,20.20
2022-07-29T04:12:05.387Z,20.20
2022-07-29T04:13:38.673Z,20.20
2022-07-29T04:15:12.815Z,20.20
2022-07-29T04:16:45.984Z,20.10
2022-07-29T04:18:18.971Z,20.10
2022-07-29T04:19:52.031Z,20.10
2022-07-29T04:21:25.043Z,20.10
2022-07-29T04:22:58.050Z,20.10
2022-07-29T04:24:32.569Z,20.20
2022-07-29T04:26:05.507Z,20.10
2022-07-29T04:27:58.617Z,20.20
2022-07-29T04:29:31.681Z,20.20
2022-07-29T04:31:04.893Z,20.20
2022-07-29T04:32:37.902Z,20.20
2022-07-29T04:34:11.327Z,20.30
2022-07-29T04:35:52.325Z,20.30
2022-07-29T04:37:27.809Z,20.30
2022-07-29T04:39:01.961Z,20.30
2022-07-29T04:40:38.703Z,20.40
2022-07-29T04:42:11.761Z,20.40
2022-07-29T04:43:46.366Z,20.30
2022-07-29T04:45:22.233Z,20.30
2022-07-29T04:46:55.825Z,20.30
2022-07-29T04:48:28.833Z,20.30
2022-07-29T04:50:01.984Z,20.30
2022-07-29T04:51:35.047Z,20.30
2022-07-29T04:53:08.451Z,20.30
2022-07-29T04:54:41.464Z,20.30
2022-07-29T04:56:15.822Z,20.30
2022-07-29T04:57:48.912Z,20.30
2022-07-29T04:59:21.955Z,20.30
2022-07-29T05:00:54.978Z,20.30
2022-07-29T05:02:27.083Z,20.40
2022-07-29T05:04:00.842Z,20.50
2022-07-29T05:05:34.419Z,20.50
2022-07-29T05:07:07.487Z,20.60
2022-07-29T05:08:41.953Z,20.70
2022-07-29T05:10:14.224Z,20.80
2022-07-29T05:11:48.617Z,20.90
2022-07-29T05:13:21.753Z,20.90
2022-07-29T05:14:53.663Z,21.00
2022-07-29T05:16:26.950Z,21.00
2022-07-29T05:18:00.030Z,21.10
2022-07-29T05:19:32.772Z,21.10
2022-07-29T05:21:05.726Z,21.20
2022-07-29T05:22:38.722Z,21.30
2022-07-29T05:24:12.663Z,21.30
2022-07-29T05:25:45.861Z,21.40
2022-07-29T05:27:20.296Z,21.40
2022-07-29T05:28:54.780Z,21.40
2022-07-29T05:30:26.993Z,21.40
2022-07-29T05:32:00.020Z,21.40
2022-07-29T05:33:36.229Z,21.50
2022-07-29T05:35:10.524Z,21.50
2022-07-29T05:36:43.575Z,21.50
2022-07-29T05:38:16.677Z,21.60
2022-07-29T05:39:56.229Z,21.50
2022-07-29T05:41:30.355Z,21.60
2022-07-29T05:43:04.700Z,21.70
2022-07-29T05:44:39.171Z,21.70
2022-07-29T05:46:12.280Z,21.70
2022-07-29T05:47:45.189Z,21.80
2022-07-29T05:49:26.874Z,21.80
2022-07-29T05:51:00.463Z,21.90
2022-07-29T05:52:33.523Z,21.90
2022-07-29T05:54:06.402Z,21.90
2022-07-29T05:55:39.420Z,21.90
2022-07-29T05:57:17.606Z,21.90
2022-07-29T05:58:51.920Z,22.00
2022-07-29T06:00:25.222Z,22.10
2022-07-29T06:08:32.359Z,22.20
2022-07-29T06:10:06.012Z,22.30
2022-07-29T06:11:38.929Z,22.30
2022-07-29T06:13:12.286Z,22.40
2022-07-29T06:14:48.151Z,22.40
2022-07-29T06:16:29.985Z,22.40
2022-07-29T06:18:03.483Z,22.40
2022-07-29T06:19:37.296Z,22.50
2022-07-29T06:21:11.655Z,22.60
2022-07-29T06:22:44.929Z,22.60
2022-07-29T06:24:18.597Z,22.70
2022-07-29T06:25:52.018Z,22.80
2022-07-29T06:27:24.991Z,22.90
2022-07-29T06:28:57.959Z,23.00
2022-07-29T06:30:32.531Z,23.10
2022-07-29T06:32:06.237Z,23.10
2022-07-29T06:33:39.308Z,23.20
2022-07-29T06:35:37.638Z,23.20
2022-07-29T06:37:09.000Z,23.40
2022-07-29T06:38:51.466Z,23.40
2022-07-29T06:40:42.892Z,23.50
2022-07-29T06:42:16.070Z,23.50
2022-07-29T06:43:51.730Z,23.50
2022-07-29T06:45:25.197Z,23.50
2022-07-29T06:47:05.687Z,23.50
2022-07-29T06:48:39.468Z,23.60
2022-07-29T06:50:13.465Z,23.60
2022-07-29T06:51:46.527Z,23.70
2022-07-29T06:53:19.277Z,23.80
2022-07-29T06:54:52.219Z,23.90
2022-07-29T06:56:25.684Z,24.00
2022-07-29T06:57:58.733Z,24.20
2022-07-29T06:59:35.625Z,24.30
2022-07-29T07:01:09.417Z,24.30
2022-07-29T07:02:43.880Z,24.40
2022-07-29T07:04:17.323Z,24.40
2022-07-29T07:05:50.906Z,24.50
2022-07-29T07:07:23.895Z,24.40
2022-07-29T07:08:56.994Z,24.40
2022-07-29T07:10:30.263Z,24.40
2022-07-29T07:12:03.202Z,24.40
2022-07-29T07:13:36.721Z,24.40
2022-07-29T07:15:10.459Z,24.40
2022-07-29T07:16:43.509Z,24.40
2022-07-29T07:18:17.876Z,24.40
2022-07-29T07:19:50.867Z,24.40
2022-07-29T07:21:23.828Z,24.40
2022-07-29T07:22:55.989Z,24.40
2022-07-29T07:24:29.073Z,24.40
2022-07-29T07:26:01.906Z,24.50
2022-07-29T07:27:34.915Z,24.50
2022-07-29T07:29:08.197Z,24.60
2022-07-29T07:30:42.140Z,24.70
2022-07-29T07:32:17.195Z,24.80
2022-07-29T07:33:52.671Z,24.90
2022-07-29T07:35:25.777Z,25.00
2022-07-29T07:36:58.554Z,25.20
2022-07-29T07:38:31.602Z,25.30
2022-07-29T07:40:04.402Z,25.40
2022-07-29T07:41:37.389Z,25.60
2022-07-29T07:43:10.474Z,25.80
2022-07-29T07:45:11.064Z,26.00
2022-07-29T07:46:36.583Z,26.20
2022-07-29T07:48:11.636Z,26.40
2022-07-29T07:49:46.016Z,26.50
2022-07-29T07:51:19.148Z,26.50
2022-07-29T07:52:54.529Z,26.50
2022-07-29T07:54:27.557Z,26.60
2022-07-29T07:56:10.447Z,26.70
2022-07-29T07:57:44.277Z,26.70
2022-07-29T07:59:17.265Z,26.80
2022-07-29T08:00:50.224Z,26.80
2022-07-29T08:02:23.339Z,26.90
2022-07-29T08:03:56.380Z,26.90
2022-07-29T08:05:30.689Z,26.90
2022-07-29T08:07:04.438Z,26.90
2022-07-29T08:08:37.405Z,26.90
2022-07-29T08:10:10.958Z,27.00
2022-07-29T08:11:52.037Z,27.10
2022-07-29T08:13:28.227Z,27.20
2022-07-29T08:15:01.302Z,27.40
2022-07-29T08:16:34.517Z,27.50
2022-07-29T08:18:08.870Z,27.60
2022-07-29T08:19:42.026Z,27.60
2022-07-29T08:21:16.890Z,27.50
2022-07-29T08:22:49.946Z,27.40
2022-07-29T08:24:40.941Z,27.40
2022-07-29T08:26:14.934Z,27.40
2022-07-29T08:27:47.895Z,27.40
2022-07-29T08:29:20.652Z,27.50
2022-07-29T08:30:53.678Z,27.50
2022-07-29T08:32:52.084Z,27.40
2022-07-29T08:34:19.739Z,27.40
2022-07-29T08:36:01.121Z,27.30
2022-07-29T08:37:35.450Z,27.20
2022-07-29T08:39:08.465Z,27.20
2022-07-29T08:40:41.923Z,27.20
2022-07-29T08:42:14.981Z,27.30
2022-07-29T08:43:48.314Z,27.20
2022-07-29T08:45:22.551Z,27.20
2022-07-29T08:46:56.577Z,27.20
2022-07-29T08:48:30.478Z,27.20
2022-07-29T08:50:03.569Z,27.20
2022-07-29T08:51:49.681Z,27.30
2022-07-29T08:53:27.377Z,27.30
2022-07-29T08:55:01.239Z,27.30
2022-07-29T08:56:35.067Z,27.40
2022-07-29T08:58:08.235Z,27.40
2022-07-29T08:59:44.479Z,27.50
2022-07-29T09:01:23.535Z,27.50
2022-07-29T09:03:12.791Z,27.40
2022-07-29T09:04:46.171Z,27.50
2022-07-29T09:06:20.898Z,27.60
2022-07-29T09:07:54.143Z,27.80
2022-07-29T09:09:28.929Z,28.10
2022-07-29T09:11:05.550Z,28.30
2022-07-29T09:12:38.906Z,28.50
2022-07-29T09:14:14.319Z,28.70
2022-07-29T09:15:47.329Z,28.70
2022-07-29T09:17:20.906Z,28.60
2022-07-29T09:18:53.882Z,28.60
2022-07-29T09:20:27.351Z,28.70
2022-07-29T09:22:03.242Z,28.80
2022-07-29T09:23:36.783Z,28.90
2022-07-29T09:25:13.651Z,29.00
2022-07-29T09:26:48.035Z,29.10
2022-07-29T09:28:21.003Z,29.20
2022-07-29T09:30:02.114Z,29.40
2022-07-29T09:31:37.162Z,29.50
2022-07-29T09:33:10.410Z,29.70
2022-07-29T09:34:43.381Z,29.90
2022-07-29T09:36:16.599Z,30.00
2022-07-29T09:37:50.392Z,30.00
2022-07-29T09:39:31.210Z,30.20
2022-07-29T09:41:08.951Z,30.30
2022-07-29T09:42:42.133Z,30.60
2022-07-29T09:44:15.844Z,30.80
2022-07-29T09:45:50.314Z,30.90
2022-07-29T09:47:26.811Z,31.00
2022-07-29T09:49:09.811Z,30.90
2022-07-29T09:50:44.724Z,31.00
2022-07-29T09:52:17.747Z,31.10
2022-07-29T09:53:51.350Z,30.90
2022-07-29T09:55:26.688Z,31.00
2022-07-29T09:57:01.287Z,31.00
2022-07-29T09:58:35.564Z,31.10
2022-07-29T10:00:10.645Z,31.30
2022-07-29T10:01:43.943Z,31.30
2022-07-29T10:03:18.003Z,31.40
2022-07-29T10:04:51.149Z,31.40
2022-07-29T10:06:24.193Z,31.50
2022-07-29T10:07:58.799Z,31.60
2022-07-29T10:09:32.228Z,31.70
2022-07-29T10:11:13.872Z,31.70
2022-07-29T10:12:58.969Z,31.90
2022-07-29T10:14:33.685Z,31.90
2022-07-29T10:16:07.840Z,31.80
2022-07-29T10:17:41.888Z,31.70
2022-07-29T10:19:15.482Z,31.90
2022-07-29T10:20:49.148Z,32.00
2022-07-29T10:22:43.572Z,32.00
2022-07-29T10:24:15.653Z,32.00
2022-07-29T10:25:48.952Z,31.90
2022-07-29T10:27:21.953Z,31.80
2022-07-29T10:28:57.386Z,31.70
2022-07-29T10:30:30.447Z,31.60
2022-07-29T10:32:28.513Z,31.60
2022-07-29T10:34:12.876Z,31.60
2022-07-29T10:35:56.736Z,31.50
2022-07-29T10:37:39.640Z,31.20
2022-07-29T10:39:41.668Z,31.20
2022-07-29T10:41:59.769Z,31.10
2022-07-29T10:43:38.742Z,31.10
2022-07-29T10:45:13.202Z,31.00
2022-07-29T10:46:48.718Z,30.90
2022-07-29T10:48:23.600Z,30.60
2022-07-29T10:50:01.757Z,30.30
2022-07-29T10:51:57.222Z,30.10
2022-07-29T10:53:49.072Z,30.00
2022-07-29T10:55:37.730Z,30.00
2022-07-29T10:57:52.404Z,30.00
2022-07-29T10:59:36.425Z,30.10
2022-07-29T11:01:37.299Z,30.30
2022-07-29T11:03:32.198Z,30.50
2022-07-29T11:05:09.381Z,30.80
2022-07-29T11:07:10.026Z,30.70
2022-07-29T11:08:43.030Z,30.70
2022-07-29T11:12:48.251Z,30.50
2022-07-29T11:14:41.327Z,30.30
2022-07-29T11:16:16.768Z,30.30
2022-07-29T11:18:14.970Z,30.20
2022-07-29T11:19:52.013Z,30.10
2022-07-29T11:21:54.724Z,30.10
2022-07-29T11:23:33.864Z,30.10
2022-07-29T11:25:17.709Z,30.00
2022-07-29T11:27:18.074Z,30.00
2022-07-29T11:28:56.610Z,30.10
2022-07-29T11:30:51.461Z,30.10
2022-07-29T11:32:29.281Z,30.10
2022-07-29T11:34:21.301Z,30.10
2022-07-29T11:36:10.545Z,30.10
2022-07-29T11:38:28.036Z,30.00
2022-07-29T11:40:13.183Z,30.00
2022-07-29T11:41:46.437Z,30.10
2022-07-29T11:43:50.663Z,30.20
2022-07-29T11:45:44.312Z,30.30
2022-07-29T11:47:22.245Z,30.50
2022-07-29T11:48:58.526Z,30.60
2022-07-29T11:50:35.376Z,30.80
2022-07-29T11:52:10.884Z,30.90
2022-07-29T11:53:52.641Z,31.00
2022-07-29T11:55:32.654Z,31.00
2022-07-29T11:57:09.867Z,31.00
2022-07-29T11:58:43.369Z,30.50
2022-07-29T12:00:26.634Z,30.30
2022-07-29T12:02:33.283Z,30.10
2022-07-29T12:05:59.296Z,30.40
2022-07-29T12:07:35.278Z,30.60
2022-07-29T12:09:11.253Z,30.70
2022-07-29T12:10:49.410Z,30.70
2022-07-29T12:12:22.907Z,30.80
2022-07-29T12:13:57.633Z,30.80
2022-07-29T12:15:46.148Z,30.80
2022-07-29T12:17:30.972Z,30.90
2022-07-29T12:19:06.740Z,30.90
2022-07-29T12:20:41.837Z,31.00
2022-07-29T12:22:27.339Z,31.10
2022-07-29T12:24:05.929Z,31.10
2022-07-29T12:25:45.092Z,30.90
2022-07-29T12:27:29.466Z,30.80
2022-07-29T12:29:03.498Z,30.90
2022-07-29T12:30:39.906Z,31.00
2022-07-29T12:32:19.479Z,31.10
2022-07-29T12:33:55.673Z,31.00
2022-07-29T12:35:33.232Z,31.30
2022-07-29T12:37:06.393Z,31.40
2022-07-29T12:38:42.761Z,31.40
2022-07-29T12:40:18.306Z,31.50
2022-07-29T12:41:51.425Z,31.40
2022-07-29T12:43:25.381Z,31.50
2022-07-29T12:44:58.674Z,31.60
2022-07-29T12:46:32.113Z,31.90
2022-07-29T12:48:05.615Z,32.10
2022-07-29T12:49:38.687Z,32.30
2022-07-29T12:51:15.464Z,32.50
2022-07-29T12:52:48.926Z,32.50
2022-07-29T12:54:22.043Z,32.70
2022-07-29T12:56:07.967Z,32.60
2022-07-29T12:57:49.692Z,32.70
2022-07-29T12:59:24.632Z,32.60
2022-07-29T13:01:17.380Z,32.70
2022-07-29T13:02:57.917Z,32.70
2022-07-29T13:04:32.354Z,32.80
2022-07-29T13:06:05.400Z,32.80
2022-07-29T13:07:54.073Z,32.90
2022-07-29T13:09:39.927Z,32.90
2022-07-29T13:11:31.178Z,32.90
2022-07-29T13:13:09.696Z,32.90
2022-07-29T13:14:44.167Z,32.90
2022-07-29T13:16:17.263Z,32.90
2022-07-29T13:17:50.319Z,32.80
2022-07-29T13:19:35.594Z,32.70
2022-07-29T13:21:16.091Z,32.60
2022-07-29T13:22:51.067Z,32.40
2022-07-29T13:24:24.123Z,32.10
2022-07-29T13:26:06.787Z,32.10
2022-07-29T13:27:41.528Z,32.00
2022-07-29T13:29:14.419Z,31.90
2022-07-29T13:30:47.604Z,31.90
2022-07-29T13:32:27.914Z,31.90
2022-07-29T13:34:02.076Z,31.80
2022-07-29T13:35:35.173Z,31.70
2022-07-29T13:37:13.110Z,31.60
2022-07-29T13:38:47.481Z,31.30
2022-07-29T13:40:20.832Z,30.80
2022-07-29T13:41:53.992Z,30.50
2022-07-29T13:43:29.635Z,30.20
2022-07-29T13:45:03.103Z,30.10
2022-07-29T13:46:36.293Z,29.80
2022-07-29T13:48:13.131Z,29.70
2022-07-29T13:49:46.433Z,29.40
2022-07-29T13:51:19.397Z,29.30
2022-07-29T13:52:52.405Z,29.20
2022-07-29T13:54:27.003Z,29.20
2022-07-29T13:56:00.870Z,29.30
2022-07-29T13:57:33.882Z,29.30
2022-07-29T13:59:06.906Z,29.30
2022-07-29T14:00:40.063Z,29.40
2022-07-29T14:02:15.641Z,29.40
2022-07-29T14:03:48.759Z,29.40
2022-07-29T14:05:21.781Z,29.40
2022-07-29T14:06:54.767Z,29.60
2022-07-29T14:08:28.012Z,29.40
2022-07-29T14:10:02.361Z,29.30
2022-07-29T14:11:35.486Z,29.20
2022-07-29T14:13:25.240Z,29.10
2022-07-29T14:14:59.263Z,28.90
2022-07-29T14:16:32.324Z,28.80
2022-07-29T14:18:05.608Z,28.70
2022-07-29T14:19:39.105Z,28.60
2022-07-29T14:21:12.307Z,28.50
2022-07-29T14:22:45.752Z,28.60
2022-07-29T14:24:22.939Z,28.40
2022-07-29T14:25:57.489Z,28.30
2022-07-29T14:27:37.910Z,28.10
2022-07-29T14:29:11.529Z,27.90
2022-07-29T14:30:44.537Z,27.80
2022-07-29T14:32:17.621Z,27.60
2022-07-29T14:33:50.711Z,27.50
2022-07-29T14:35:23.721Z,27.40
2022-07-29T14:36:57.205Z,27.40
2022-07-29T14:38:30.260Z,27.30
2022-07-29T14:40:04.663Z,27.30
2022-07-29T14:41:39.117Z,27.20
2022-07-29T14:43:12.783Z,27.10
2022-07-29T14:44:45.959Z,27.10
2022-07-29T14:46:20.078Z,27.10
2022-07-29T14:47:56.372Z,27.10
2022-07-29T14:49:30.523Z,27.20
2022-07-29T14:51:05.132Z,27.30
2022-07-29T14:52:38.431Z,27.50
2022-07-29T14:54:11.490Z,27.60
2022-07-29T14:55:44.443Z,27.60
2022-07-29T14:57:18.635Z,27.60
2022-07-29T14:58:52.148Z,27.60
2022-07-29T15:00:25.222Z,27.50
2022-07-29T15:01:59.964Z,27.40
2022-07-29T15:03:33.968Z,27.20
2022-07-29T15:05:07.643Z,27.00
2022-07-29T15:06:40.622Z,26.90
2022-07-29T15:08:13.894Z,26.90
2022-07-29T15:09:49.304Z,26.70
2022-07-29T15:11:23.315Z,26.60
2022-07-29T15:12:57.846Z,26.40
2022-07-29T15:14:31.126Z,26.30
2022-07-29T15:16:04.408Z,26.20
2022-07-29T15:17:37.442Z,26.10
2022-07-29T15:19:10.163Z,26.00
2022-07-29T15:20:43.182Z,25.90
2022-07-29T15:22:16.065Z,25.80
2022-07-29T15:23:49.191Z,25.70
2022-07-29T15:25:22.273Z,25.60
2022-07-29T15:26:55.032Z,25.60
2022-07-29T15:28:29.381Z,25.60
2022-07-29T15:30:02.449Z,25.60
2022-07-29T15:31:35.291Z,25.60
2022-07-29T15:33:09.029Z,25.60
2022-07-29T15:34:42.068Z,25.40
2022-07-29T15:36:25.609Z,25.40
2022-07-29T15:38:08.094Z,25.30
2022-07-29T15:39:40.842Z,25.20
2022-07-29T15:41:16.174Z,25.10
2022-07-29T15:42:49.262Z,25.00
2022-07-29T15:44:23.382Z,24.90
2022-07-29T15:46:14.016Z,24.90
2022-07-29T15:47:47.039Z,24.80
2022-07-29T15:49:20.153Z,24.80
2022-07-29T15:50:56.246Z,24.70
2022-07-29T15:52:30.766Z,24.50
2022-07-29T15:54:04.484Z,24.30
2022-07-29T15:55:37.506Z,24.20
2022-07-29T15:57:10.712Z,24.10
2022-07-29T15:58:43.713Z,24.00
2022-07-29T16:00:18.667Z,24.00
2022-07-29T16:01:51.681Z,23.90
2022-07-29T16:03:24.759Z,23.90
2022-07-29T16:04:56.654Z,23.70
2022-07-29T16:06:29.731Z,23.50
2022-07-29T16:08:02.498Z,23.40
2022-07-29T16:09:35.493Z,23.30
2022-07-29T16:11:08.527Z,23.10
2022-07-29T16:12:41.819Z,23.00
2022-07-29T16:14:14.859Z,22.90
2022-07-29T16:16:02.190Z,22.90
2022-07-29T16:17:36.141Z,22.80
2022-07-29T16:19:10.170Z,22.70
2022-07-29T16:20:43.409Z,22.60
2022-07-29T16:22:16.628Z,22.50
2022-07-29T16:23:49.749Z,22.40
2022-07-29T16:25:38.474Z,22.30
2022-07-29T16:27:15.684Z,22.30
2022-07-29T16:28:47.648Z,22.10
2022-07-29T16:30:23.016Z,21.90
2022-07-29T16:31:57.495Z,21.90
2022-07-29T16:33:54.700Z,21.70
2022-07-29T16:35:23.671Z,21.50
2022-07-29T16:37:12.471Z,21.40
2022-07-29T16:38:47.071Z,21.20
2022-07-29T16:40:20.530Z,21.20
2022-07-29T16:41:55.925Z,21.10
2022-07-29T16:43:32.526Z,21.10
2022-07-29T16:45:06.840Z,21.00
2022-07-29T16:46:40.284Z,20.80
2022-07-29T16:48:17.960Z,20.60
2022-07-29T16:49:51.454Z,20.30
2022-07-29T16:51:24.351Z,20.00
2022-07-29T16:52:57.426Z,19.80
2022-07-29T16:54:30.773Z,19.60
2022-07-29T16:56:03.701Z,19.50
2022-07-29T16:57:36.710Z,19.40
2022-07-29T16:59:10.223Z,19.40
2022-07-29T17:00:43.353Z,19.30
2022-07-29T17:02:16.347Z,19.20
2022-07-29T17:04:09.255Z,19.20
2022-07-29T17:05:52.762Z,19.10
2022-07-29T17:07:27.437Z,18.90
2022-07-29T17:09:00.435Z,18.80
2022-07-29T17:10:33.784Z,18.80
2022-07-29T17:12:07.504Z,18.80
2022-07-29T17:13:40.503Z,18.70
2022-07-29T17:15:14.404Z,18.80
2022-07-29T17:16:58.908Z,18.80
2022-07-29T17:18:34.445Z,18.70
2022-07-29T17:20:10.428Z,18.80
2022-07-29T17:21:47.301Z,18.80
2022-07-29T17:23:22.232Z,18.90
2022-07-29T17:24:55.521Z,19.00
2022-07-29T17:26:28.832Z,19.10
2022-07-29T17:28:01.878Z,19.10
2022-07-29T17:29:35.935Z,19.00
2022-07-29T17:31:08.943Z,19.10
2022-07-29T17:32:42.047Z,19.20
2022-07-29T17:34:15.357Z,19.20
2022-07-29T17:36:07.652Z,19.30
2022-07-29T17:37:43.968Z,19.30
2022-07-29T17:39:17.019Z,19.40
2022-07-29T17:40:50.279Z,19.40
2022-07-29T17:42:23.321Z,19.40
2022-07-29T17:43:57.324Z,19.50
2022-07-29T17:45:49.660Z,19.50
2022-07-29T17:47:23.481Z,19.50
2022-07-29T17:48:57.639Z,19.60
2022-07-29T17:50:30.683Z,19.60
2022-07-29T17:52:05.379Z,19.60
2022-07-29T17:53:38.781Z,19.60
2022-07-29T17:55:13.278Z,19.70
2022-07-29T17:56:46.317Z,19.70
2022-07-29T17:58:19.327Z,19.70
2022-07-29T17:59:53.574Z,19.70
2022-07-29T18:01:26.637Z,19.70
2022-07-29T18:02:59.697Z,19.60
2022-07-29T18:04:32.753Z,19.70
2022-07-29T18:06:06.199Z,19.70
2022-07-29T18:07:40.904Z,19.70
2022-07-29T18:09:13.825Z,19.70
2022-07-29T18:10:47.259Z,19.70
2022-07-29T18:12:20.448Z,19.60
2022-07-29T18:13:53.312Z,19.60
2022-07-29T18:15:26.381Z,19.60
2022-07-29T18:17:01.113Z,19.60
2022-07-29T18:18:34.732Z,19.60
2022-07-29T18:20:08.751Z,19.60
2022-07-29T18:21:51.833Z,19.60
2022-07-29T18:23:29.247Z,19.60
2022-07-29T18:25:02.397Z,19.60
2022-07-29T18:26:35.189Z,19.60
2022-07-29T18:28:08.740Z,19.60
2022-07-29T18:29:41.722Z,19.60
2022-07-29T18:31:14.777Z,19.60
2022-07-29T18:33:18.146Z,19.50
2022-07-29T18:34:42.357Z,19.50
2022-07-29T18:36:15.903Z,19.50
2022-07-29T18:38:00.814Z,19.50
2022-07-29T18:39:37.157Z,19.50
2022-07-29T18:41:10.184Z,19.50
2022-07-29T18:42:43.240Z,19.50
2022-07-29T18:44:17.538Z,19.50
2022-07-29T18:45:50.803Z,19.50
2022-07-29T18:47:24.121Z,19.50
2022-07-29T18:49:05.080Z,19.50
2022-07-29T18:50:38.139Z,19.60
2022-07-29T18:52:11.182Z,19.50
2022-07-29T18:53:44.149Z,19.50
2022-07-29T18:55:18.645Z,19.50
2022-07-29T18:56:51.928Z,19.50
2022-07-29T18:58:25.011Z,19.40
2022-07-29T18:59:57.158Z,19.40
2022-07-29T19:01:31.596Z,19.40
2022-07-29T19:03:05.259Z,19.40
2022-07-29T19:04:38.246Z,19.40
2022-07-29T19:06:11.312Z,19.40
2022-07-29T19:07:44.385Z,19.30
2022-07-29T19:09:17.887Z,19.40
2022-07-29T19:10:52.348Z,19.30
2022-07-29T19:12:25.475Z,19.30
2022-07-29T19:13:58.612Z,19.30
2022-07-29T19:15:31.436Z,19.30
2022-07-29T19:17:05.286Z,19.30
2022-07-29T19:18:38.690Z,19.30
2022-07-29T19:20:12.965Z,19.30
2022-07-29T19:21:47.030Z,19.30
2022-07-29T19:23:20.200Z,19.40
2022-07-29T19:24:53.277Z,19.40
2022-07-29T19:26:27.855Z,19.30
2022-07-29T19:28:01.030Z,19.40
2022-07-29T19:29:34.920Z,19.40
2022-07-29T19:31:08.640Z,19.30
2022-07-29T19:32:41.685Z,19.30
2022-07-29T19:34:14.791Z,19.30
2022-07-29T19:35:50.346Z,19.30
2022-07-29T19:37:25.953Z,19.30
2022-07-29T19:38:59.996Z,19.30
2022-07-29T19:40:33.262Z,19.40
2022-07-29T19:42:08.407Z,19.30
2022-07-29T19:43:51.590Z,19.30
2022-07-29T19:45:26.801Z,19.30
2022-07-29T19:47:00.735Z,19.40
2022-07-29T19:48:34.215Z,19.40
2022-07-29T19:50:07.707Z,19.50
2022-07-29T19:51:41.638Z,19.50
2022-07-29T19:53:15.110Z,19.50
2022-07-29T19:54:48.525Z,19.50
2022-07-29T19:56:21.782Z,19.50
2022-07-29T19:57:59.714Z,19.60
2022-07-29T19:59:33.819Z,19.60
2022-07-29T20:01:10.403Z,19.60
2022-07-29T20:02:44.435Z,19.60
2022-07-29T20:04:17.567Z,19.60
2022-07-29T20:05:52.506Z,19.60
2022-07-29T20:07:26.015Z,19.60
2022-07-29T20:08:59.266Z,19.60
2022-07-29T20:10:32.176Z,19.60
2022-07-29T20:12:06.575Z,19.60
2022-07-29T20:13:41.117Z,19.60
2022-07-29T20:15:16.566Z,19.60
2022-07-29T20:16:50.178Z,19.50
2022-07-29T20:18:23.243Z,19.50
2022-07-29T20:19:59.925Z,19.60
2022-07-29T20:21:33.938Z,19.60
2022-07-29T20:23:07.025Z,19.60
2022-07-29T20:24:40.031Z,19.60
2022-07-29T20:26:15.063Z,19.60
2022-07-29T20:27:50.458Z,19.60
2022-07-29T20:29:25.449Z,19.50
2022-07-29T20:30:58.467Z,19.50
2022-07-29T20:32:31.716Z,19.50
2022-07-29T20:34:04.699Z,19.50
2022-07-29T20:35:37.830Z,19.50
2022-07-29T20:37:13.382Z,19.50
2022-07-29T20:38:46.503Z,19.50
2022-07-29T20:40:19.587Z,19.50
2022-07-29T20:41:52.437Z,19.60
2022-07-29T20:43:25.563Z,19.50
2022-07-29T20:45:00.255Z,19.50
2022-07-29T20:46:33.558Z,19.50
2022-07-29T20:48:08.346Z,19.50
2022-07-29T20:49:41.577Z,19.50